sensor_id;sensor_type;location;lat;lon;timestamp;temperature;humidity
2158;DHT22;41972;48.774;9.282;2022-10-17T00:01:36;12.80;99.90
2158;DHT22;41972;48.774;9.282;2022-10-17T00:04:01;12.90;99.90
2158;DHT22;41972;48.774;9.282;2022-10-17T00:06:27;12.80;99.90
2158;DHT22;41972;48.774;9.282;2022-10-17T00:08:52;12.80;99.90
2158;DHT22;41972;48.774;9.282;2022-10-17T00:11:20;12.60;99.90
2158;DHT22;41972;48.774;9.282;2022-10-17T00:13:47;12.60;99.90
2158;DHT22;41972;48.774;9.282;2022-10-17T00:16:15;12.50;99.90
2158;DHT22;41972;48.774;9.282;2022-10-17T00:18:41;12.50;99.90
2158;DHT22;41972;48.774;9.282;2022-10-17T00:21:14;12.50;99.90
2158;DHT22;41972;48.774;9.282;2022-10-17T00:23:40;12.50;99.90
2158;DHT22;41972;48.774;9.282;2022-10-17T00:26:05;12.50;99.90
2158;DHT22;41972;48.774;9.282;2022-10-17T00:28:31;12.50;99.90
2158;DHT22;41972;48.774;9.282;2022-10-17T00:30:59;12.60;99.90
2158;DHT22;41972;48.774;9.282;2022-10-17T00:33:26;12.60;99.90
2158;DHT22;41972;48.774;9.282;2022-10-17T00:36:21;12.40;99.90
2158;DHT22;41972;48.774;9.282;2022-10-17T00:38:51;12.40;99.90
2158;DHT22;41972;48.774;9.282;2022-10-17T00:41:20;12.30;99.90
2158;DHT22;41972;48.774;9.282;2022-10-17T00:46:25;12.30;99.90
2158;DHT22;41972;48.774;9.282;2022-10-17T00:48:52;12.30;99.90
2158;DHT22;41972;48.774;9.282;2022-10-17T00:51:24;12.10;99.90
2158;DHT22;41972;48.774;9.282;2022-10-17T00:53:54;12.10;99.90
2158;DHT22;41972;48.774;9.282;2022-10-17T00:56:20;12.30;99.90
2158;DHT22;41972;48.774;9.282;2022-10-17T00:58:46;12.40;99.90
2158;DHT22;41972;48.774;9.282;2022-10-17T01:01:12;12.20;99.90
2158;DHT22;41972;48.774;9.282;2022-10-17T01:03:37;12.20;99.90
2158;DHT22;41972;48.774;9.282;2022-10-17T01:06:03;12.20;99.90
2158;DHT22;41972;48.774;9.282;2022-10-17T01:08:29;12.20;99.90
2158;DHT22;41972;48.774;9.282;2022-10-17T01:11:34;12.10;99.90
2158;DHT22;41972;48.774;9.282;2022-10-17T01:14:00;11.90;99.90
2158;DHT22;41972;48.774;9.282;2022-10-17T01:19:53;11.90;99.90
2158;DHT22;41972;48.774;9.282;2022-10-17T01:25:22;11.80;99.90
2158;DHT22;41972;48.774;9.282;2022-10-17T01:28:10;11.90;99.90
2158;DHT22;41972;48.774;9.282;2022-10-17T01:31:09;11.90;99.90
2158;DHT22;41972;48.774;9.282;2022-10-17T01:34:17;11.90;99.90
2158;DHT22;41972;48.774;9.282;2022-10-17T01:42:22;12.00;99.90
2158;DHT22;41972;48.774;9.282;2022-10-17T01:44:54;11.90;99.90
2158;DHT22;41972;48.774;9.282;2022-10-17T01:47:27;12.00;99.90
2158;DHT22;41972;48.774;9.282;2022-10-17T01:50:03;12.00;99.90
2158;DHT22;41972;48.774;9.282;2022-10-17T01:52:40;11.90;99.90
2158;DHT22;41972;48.774;9.282;2022-10-17T01:55:10;11.80;99.90
2158;DHT22;41972;48.774;9.282;2022-10-17T01:57:56;11.70;99.90
2158;DHT22;41972;48.774;9.282;2022-10-17T02:00:24;11.70;99.90
2158;DHT22;41972;48.774;9.282;2022-10-17T02:02:56;11.70;99.90
2158;DHT22;41972;48.774;9.282;2022-10-17T02:05:26;11.90;99.90
2158;DHT22;41972;48.774;9.282;2022-10-17T02:07:53;11.80;99.90
2158;DHT22;41972;48.774;9.282;2022-10-17T02:10:59;11.80;99.90
2158;DHT22;41972;48.774;9.282;2022-10-17T02:17:01;11.80;99.90
2158;DHT22;41972;48.774;9.282;2022-10-17T02:19:54;11.60;99.90
2158;DHT22;41972;48.774;9.282;2022-10-17T02:24:53;11.70;99.90
2158;DHT22;41972;48.774;9.282;2022-10-17T02:30:44;11.60;99.90
2158;DHT22;41972;48.774;9.282;2022-10-17T02:32:56;11.70;99.90
2158;DHT22;41972;48.774;9.282;2022-10-17T02:35:25;11.70;99.90
2158;DHT22;41972;48.774;9.282;2022-10-17T02:37:52;11.70;99.90
2158;DHT22;41972;48.774;9.282;2022-10-17T02:40:20;11.60;99.90
2158;DHT22;41972;48.774;9.282;2022-10-17T02:42:49;11.70;99.90
2158;DHT22;41972;48.774;9.282;2022-10-17T02:45:16;11.80;99.90
2158;DHT22;41972;48.774;9.282;2022-10-17T02:47:53;11.80;99.90
2158;DHT22;41972;48.774;9.282;2022-10-17T02:50:27;11.80;99.90
2158;DHT22;41972;48.774;9.282;2022-10-17T02:53:05;11.70;99.90
2158;DHT22;41972;48.774;9.282;2022-10-17T02:55:38;11.60;99.90
2158;DHT22;41972;48.774;9.282;2022-10-17T02:58:13;11.60;99.90
2158;DHT22;41972;48.774;9.282;2022-10-17T03:00:41;11.50;99.90
2158;DHT22;41972;48.774;9.282;2022-10-17T03:03:22;11.60;99.90
2158;DHT22;41972;48.774;9.282;2022-10-17T03:05:49;11.50;99.90
2158;DHT22;41972;48.774;9.282;2022-10-17T03:08:14;11.60;99.90
2158;DHT22;41972;48.774;9.282;2022-10-17T03:10:41;11.60;99.90
2158;DHT22;41972;48.774;9.282;2022-10-17T03:13:07;11.60;99.90
2158;DHT22;41972;48.774;9.282;2022-10-17T03:15:32;11.50;99.90
2158;DHT22;41972;48.774;9.282;2022-10-17T03:17:58;11.50;99.90
2158;DHT22;41972;48.774;9.282;2022-10-17T03:20:24;11.40;99.90
2158;DHT22;41972;48.774;9.282;2022-10-17T03:22:49;11.40;99.90
2158;DHT22;41972;48.774;9.282;2022-10-17T03:25:16;11.60;99.90
2158;DHT22;41972;48.774;9.282;2022-10-17T03:27:42;11.80;99.90
2158;DHT22;41972;48.774;9.282;2022-10-17T03:30:08;11.80;99.90
2158;DHT22;41972;48.774;9.282;2022-10-17T03:32:34;11.80;99.90
2158;DHT22;41972;48.774;9.282;2022-10-17T03:34:59;11.90;99.90
2158;DHT22;41972;48.774;9.282;2022-10-17T03:37:25;11.90;99.90
2158;DHT22;41972;48.774;9.282;2022-10-17T03:39:50;11.90;99.90
2158;DHT22;41972;48.774;9.282;2022-10-17T03:42:16;11.90;99.90
2158;DHT22;41972;48.774;9.282;2022-10-17T03:44:41;11.90;99.90
2158;DHT22;41972;48.774;9.282;2022-10-17T03:47:07;11.90;99.90
2158;DHT22;41972;48.774;9.282;2022-10-17T03:49:33;11.80;99.90
2158;DHT22;41972;48.774;9.282;2022-10-17T03:51:58;11.70;99.90
2158;DHT22;41972;48.774;9.282;2022-10-17T03:54:24;11.70;99.90
2158;DHT22;41972;48.774;9.282;2022-10-17T03:56:50;11.50;99.90
2158;DHT22;41972;48.774;9.282;2022-10-17T03:59:15;11.50;99.90
2158;DHT22;41972;48.774;9.282;2022-10-17T04:01:41;11.40;99.90
2158;DHT22;41972;48.774;9.282;2022-10-17T04:04:08;11.70;99.90
2158;DHT22;41972;48.774;9.282;2022-10-17T04:06:34;11.80;99.90
2158;DHT22;41972;48.774;9.282;2022-10-17T04:09:00;11.90;99.90
2158;DHT22;41972;48.774;9.282;2022-10-17T04:11:26;11.70;99.90
2158;DHT22;41972;48.774;9.282;2022-10-17T04:13:53;11.70;99.90
2158;DHT22;41972;48.774;9.282;2022-10-17T04:16:20;11.70;99.90
2158;DHT22;41972;48.774;9.282;2022-10-17T04:18:45;11.80;99.90
2158;DHT22;41972;48.774;9.282;2022-10-17T04:21:12;11.90;99.90
2158;DHT22;41972;48.774;9.282;2022-10-17T04:23:38;12.00;99.90
2158;DHT22;41972;48.774;9.282;2022-10-17T04:26:05;11.90;99.90
2158;DHT22;41972;48.774;9.282;2022-10-17T04:28:31;11.80;99.90
2158;DHT22;41972;48.774;9.282;2022-10-17T04:31:09;11.90;99.90
2158;DHT22;41972;48.774;9.282;2022-10-17T04:33:36;11.90;99.90
2158;DHT22;41972;48.774;9.282;2022-10-17T04:36:06;11.90;99.90
2158;DHT22;41972;48.774;9.282;2022-10-17T04:38:33;12.00;99.90
2158;DHT22;41972;48.774;9.282;2022-10-17T04:41:00;11.90;99.90
2158;DHT22;41972;48.774;9.282;2022-10-17T04:43:33;11.80;99.90
2158;DHT22;41972;48.774;9.282;2022-10-17T04:46:00;11.70;99.90
2158;DHT22;41972;48.774;9.282;2022-10-17T04:48:27;11.70;99.90
2158;DHT22;41972;48.774;9.282;2022-10-17T04:50:59;11.80;99.90
2158;DHT22;41972;48.774;9.282;2022-10-17T04:53:24;11.60;99.90
2158;DHT22;41972;48.774;9.282;2022-10-17T04:55:51;11.80;99.90
2158;DHT22;41972;48.774;9.282;2022-10-17T04:58:17;12.00;99.90
2158;DHT22;41972;48.774;9.282;2022-10-17T05:00:44;12.10;99.90
2158;DHT22;41972;48.774;9.282;2022-10-17T05:03:10;12.40;99.90
2158;DHT22;41972;48.774;9.282;2022-10-17T05:05:39;12.20;99.90
2158;DHT22;41972;48.774;9.282;2022-10-17T05:08:06;12.20;99.90
2158;DHT22;41972;48.774;9.282;2022-10-17T05:10:40;12.10;99.90
2158;DHT22;41972;48.774;9.282;2022-10-17T05:13:06;12.20;99.90
2158;DHT22;41972;48.774;9.282;2022-10-17T05:15:33;12.20;99.90
2158;DHT22;41972;48.774;9.282;2022-10-17T05:17:59;12.20;99.90
2158;DHT22;41972;48.774;9.282;2022-10-17T05:20:25;12.10;99.90
2158;DHT22;41972;48.774;9.282;2022-10-17T05:22:50;12.10;99.90
2158;DHT22;41972;48.774;9.282;2022-10-17T05:25:16;12.10;99.90
2158;DHT22;41972;48.774;9.282;2022-10-17T05:27:43;12.20;99.90
2158;DHT22;41972;48.774;9.282;2022-10-17T05:30:09;12.10;99.90
2158;DHT22;41972;48.774;9.282;2022-10-17T05:32:35;12.20;99.90
2158;DHT22;41972;48.774;9.282;2022-10-17T05:35:01;12.20;99.90
2158;DHT22;41972;48.774;9.282;2022-10-17T05:37:29;12.30;99.90
2158;DHT22;41972;48.774;9.282;2022-10-17T05:39:55;12.20;99.90
2158;DHT22;41972;48.774;9.282;2022-10-17T05:42:20;12.20;99.90
2158;DHT22;41972;48.774;9.282;2022-10-17T05:44:46;12.30;99.90
2158;DHT22;41972;48.774;9.282;2022-10-17T05:47:11;12.60;99.90
2158;DHT22;41972;48.774;9.282;2022-10-17T05:49:37;12.60;99.90
2158;DHT22;41972;48.774;9.282;2022-10-17T05:52:03;12.50;99.90
2158;DHT22;41972;48.774;9.282;2022-10-17T05:54:29;12.50;99.90
2158;DHT22;41972;48.774;9.282;2022-10-17T05:56:55;12.40;99.90
2158;DHT22;41972;48.774;9.282;2022-10-17T05:59:20;12.40;99.90
2158;DHT22;41972;48.774;9.282;2022-10-17T06:01:46;12.30;99.90
2158;DHT22;41972;48.774;9.282;2022-10-17T06:04:12;12.40;99.90
2158;DHT22;41972;48.774;9.282;2022-10-17T06:06:38;12.40;99.90
2158;DHT22;41972;48.774;9.282;2022-10-17T06:09:05;12.30;99.90
2158;DHT22;41972;48.774;9.282;2022-10-17T06:11:30;12.30;99.90
2158;DHT22;41972;48.774;9.282;2022-10-17T06:13:56;12.40;99.90
2158;DHT22;41972;48.774;9.282;2022-10-17T06:16:22;12.40;99.90
2158;DHT22;41972;48.774;9.282;2022-10-17T06:18:47;12.50;99.90
2158;DHT22;41972;48.774;9.282;2022-10-17T06:21:16;12.60;99.90
2158;DHT22;41972;48.774;9.282;2022-10-17T06:23:43;12.70;99.90
2158;DHT22;41972;48.774;9.282;2022-10-17T06:26:09;12.70;99.90
2158;DHT22;41972;48.774;9.282;2022-10-17T06:28:35;12.80;99.90
2158;DHT22;41972;48.774;9.282;2022-10-17T06:31:08;12.70;99.90
2158;DHT22;41972;48.774;9.282;2022-10-17T06:33:34;12.70;99.90
2158;DHT22;41972;48.774;9.282;2022-10-17T06:36:00;12.50;99.90
2158;DHT22;41972;48.774;9.282;2022-10-17T06:38:26;12.60;99.90
2158;DHT22;41972;48.774;9.282;2022-10-17T06:40:51;12.80;99.90
2158;DHT22;41972;48.774;9.282;2022-10-17T06:43:19;12.80;99.90
2158;DHT22;41972;48.774;9.282;2022-10-17T06:45:47;12.80;99.90
2158;DHT22;41972;48.774;9.282;2022-10-17T06:48:13;12.90;99.90
2158;DHT22;41972;48.774;9.282;2022-10-17T06:50:39;12.90;99.90
2158;DHT22;41972;48.774;9.282;2022-10-17T06:53:05;13.00;99.90
2158;DHT22;41972;48.774;9.282;2022-10-17T06:55:31;12.80;99.90
2158;DHT22;41972;48.774;9.282;2022-10-17T06:57:57;12.60;99.90
2158;DHT22;41972;48.774;9.282;2022-10-17T07:00:23;12.70;99.90
2158;DHT22;41972;48.774;9.282;2022-10-17T07:02:51;12.90;99.90
2158;DHT22;41972;48.774;9.282;2022-10-17T07:05:18;13.20;99.90
2158;DHT22;41972;48.774;9.282;2022-10-17T07:07:44;13.80;99.90
2158;DHT22;41972;48.774;9.282;2022-10-17T07:10:10;14.50;99.90
2158;DHT22;41972;48.774;9.282;2022-10-17T07:12:36;14.80;99.90
2158;DHT22;41972;48.774;9.282;2022-10-17T07:15:02;15.10;99.90
2158;DHT22;41972;48.774;9.282;2022-10-17T07:17:31;16.20;99.90
2158;DHT22;41972;48.774;9.282;2022-10-17T07:19:56;17.20;99.90
2158;DHT22;41972;48.774;9.282;2022-10-17T07:22:22;18.70;99.90
2158;DHT22;41972;48.774;9.282;2022-10-17T07:24:47;18.90;99.90
2158;DHT22;41972;48.774;9.282;2022-10-17T07:27:13;19.80;99.90
2158;DHT22;41972;48.774;9.282;2022-10-17T07:29:39;19.30;99.90
2158;DHT22;41972;48.774;9.282;2022-10-17T07:32:05;20.70;99.90
2158;DHT22;41972;48.774;9.282;2022-10-17T07:34:33;20.50;99.90
2158;DHT22;41972;48.774;9.282;2022-10-17T07:36:59;20.60;99.90
2158;DHT22;41972;48.774;9.282;2022-10-17T07:39:25;21.40;99.90
2158;DHT22;41972;48.774;9.282;2022-10-17T07:41:50;21.50;99.90
2158;DHT22;41972;48.774;9.282;2022-10-17T07:44:16;22.80;99.90
2158;DHT22;41972;48.774;9.282;2022-10-17T07:46:42;24.10;99.90
2158;DHT22;41972;48.774;9.282;2022-10-17T07:49:07;24.70;99.90
2158;DHT22;41972;48.774;9.282;2022-10-17T07:51:33;23.00;99.90
2158;DHT22;41972;48.774;9.282;2022-10-17T07:53:58;22.80;99.90
2158;DHT22;41972;48.774;9.282;2022-10-17T07:56:24;23.50;99.90
2158;DHT22;41972;48.774;9.282;2022-10-17T07:58:51;22.50;99.90
2158;DHT22;41972;48.774;9.282;2022-10-17T08:01:17;23.00;99.90
2158;DHT22;41972;48.774;9.282;2022-10-17T08:03:44;22.80;99.90
2158;DHT22;41972;48.774;9.282;2022-10-17T08:06:10;22.80;99.90
2158;DHT22;41972;48.774;9.282;2022-10-17T08:08:36;21.40;99.90
2158;DHT22;41972;48.774;9.282;2022-10-17T08:11:04;21.20;99.90
2158;DHT22;41972;48.774;9.282;2022-10-17T08:13:30;21.40;99.90
2158;DHT22;41972;48.774;9.282;2022-10-17T08:16:00;21.70;99.90
2158;DHT22;41972;48.774;9.282;2022-10-17T08:18:25;20.60;99.90
2158;DHT22;41972;48.774;9.282;2022-10-17T08:20:51;20.70;99.90
2158;DHT22;41972;48.774;9.282;2022-10-17T08:23:16;21.10;99.90
2158;DHT22;41972;48.774;9.282;2022-10-17T08:25:42;23.00;99.90
2158;DHT22;41972;48.774;9.282;2022-10-17T08:28:08;24.10;99.90
2158;DHT22;41972;48.774;9.282;2022-10-17T08:30:33;24.30;99.90
2158;DHT22;41972;48.774;9.282;2022-10-17T08:32:59;25.90;99.90
2158;DHT22;41972;48.774;9.282;2022-10-17T08:35:24;25.90;99.90
2158;DHT22;41972;48.774;9.282;2022-10-17T08:37:50;24.50;99.90
2158;DHT22;41972;48.774;9.282;2022-10-17T08:40:22;22.70;99.90
2158;DHT22;41972;48.774;9.282;2022-10-17T08:45:25;23.50;99.90
2158;DHT22;41972;48.774;9.282;2022-10-17T08:47:59;24.20;99.90
2158;DHT22;41972;48.774;9.282;2022-10-17T08:53:18;27.60;99.90
2158;DHT22;41972;48.774;9.282;2022-10-17T08:55:46;26.90;99.90
2158;DHT22;41972;48.774;9.282;2022-10-17T08:58:21;27.60;99.90
2158;DHT22;41972;48.774;9.282;2022-10-17T09:06:52;33.30;99.90
2158;DHT22;41972;48.774;9.282;2022-10-17T09:12:23;33.60;99.90
2158;DHT22;41972;48.774;9.282;2022-10-17T09:15:05;33.10;99.90
2158;DHT22;41972;48.774;9.282;2022-10-17T09:17:52;29.10;99.90
2158;DHT22;41972;48.774;9.282;2022-10-17T09:20:22;27.80;99.90
2158;DHT22;41972;48.774;9.282;2022-10-17T09:23:09;27.60;99.90
2158;DHT22;41972;48.774;9.282;2022-10-17T09:25:45;27.70;99.90
2158;DHT22;41972;48.774;9.282;2022-10-17T09:30:50;25.60;99.90
2158;DHT22;41972;48.774;9.282;2022-10-17T09:33:25;23.50;99.90
2158;DHT22;41972;48.774;9.282;2022-10-17T09:35:52;23.50;99.90
2158;DHT22;41972;48.774;9.282;2022-10-17T09:38:20;24.00;99.90
2158;DHT22;41972;48.774;9.282;2022-10-17T09:40:58;24.20;99.90
2158;DHT22;41972;48.774;9.282;2022-10-17T09:43:24;24.60;99.90
2158;DHT22;41972;48.774;9.282;2022-10-17T09:46:04;26.10;99.90
2158;DHT22;41972;48.774;9.282;2022-10-17T09:50:57;26.70;99.90
2158;DHT22;41972;48.774;9.282;2022-10-17T09:53:32;27.40;99.90
2158;DHT22;41972;48.774;9.282;2022-10-17T09:56:02;28.90;99.90
2158;DHT22;41972;48.774;9.282;2022-10-17T09:58:42;28.30;99.90
2158;DHT22;41972;48.774;9.282;2022-10-17T10:01:29;27.30;99.90
2158;DHT22;41972;48.774;9.282;2022-10-17T10:04:10;24.50;99.90
2158;DHT22;41972;48.774;9.282;2022-10-17T10:06:37;23.90;99.90
2158;DHT22;41972;48.774;9.282;2022-10-17T10:09:03;24.60;99.90
2158;DHT22;41972;48.774;9.282;2022-10-17T10:11:48;25.40;99.90
2158;DHT22;41972;48.774;9.282;2022-10-17T10:14:23;26.80;99.90
2158;DHT22;41972;48.774;9.282;2022-10-17T10:16:53;27.20;99.90
2158;DHT22;41972;48.774;9.282;2022-10-17T10:19:29;25.30;99.90
2158;DHT22;41972;48.774;9.282;2022-10-17T10:24:24;22.90;99.90
2158;DHT22;41972;48.774;9.282;2022-10-17T10:26:52;23.50;99.90
2158;DHT22;41972;48.774;9.282;2022-10-17T10:29:31;23.70;99.90
2158;DHT22;41972;48.774;9.282;2022-10-17T10:32:19;23.60;99.90
2158;DHT22;41972;48.774;9.282;2022-10-17T10:37:20;25.40;99.90
2158;DHT22;41972;48.774;9.282;2022-10-17T10:40:24;25.40;99.90
2158;DHT22;41972;48.774;9.282;2022-10-17T10:42:41;24.70;99.90
2158;DHT22;41972;48.774;9.282;2022-10-17T10:45:20;23.80;99.90
2158;DHT22;41972;48.774;9.282;2022-10-17T10:50:35;24.70;99.90
2158;DHT22;41972;48.774;9.282;2022-10-17T10:53:23;23.20;99.90
2158;DHT22;41972;48.774;9.282;2022-10-17T10:55:53;23.20;99.90
2158;DHT22;41972;48.774;9.282;2022-10-17T11:06:42;22.60;99.90
2158;DHT22;41972;48.774;9.282;2022-10-17T11:12:18;22.90;99.90
2158;DHT22;41972;48.774;9.282;2022-10-17T11:17:35;23.20;99.90
2158;DHT22;41972;48.774;9.282;2022-10-17T11:20:13;23.30;99.90
2158;DHT22;41972;48.774;9.282;2022-10-17T11:22:47;23.00;99.90
2158;DHT22;41972;48.774;9.282;2022-10-17T11:25:33;23.40;99.90
2158;DHT22;41972;48.774;9.282;2022-10-17T11:28:00;23.50;99.90
2158;DHT22;41972;48.774;9.282;2022-10-17T11:30:38;23.70;99.90
2158;DHT22;41972;48.774;9.282;2022-10-17T11:33:04;23.20;99.90
2158;DHT22;41972;48.774;9.282;2022-10-17T11:35:40;23.30;99.90
2158;DHT22;41972;48.774;9.282;2022-10-17T11:40:58;23.60;99.90
2158;DHT22;41972;48.774;9.282;2022-10-17T11:43:41;23.80;99.90
2158;DHT22;41972;48.774;9.282;2022-10-17T11:46:20;24.10;99.90
2158;DHT22;41972;48.774;9.282;2022-10-17T11:51:22;24.30;99.90
2158;DHT22;41972;48.774;9.282;2022-10-17T11:56:50;24.40;99.90
2158;DHT22;41972;48.774;9.282;2022-10-17T12:02:10;24.70;99.90
2158;DHT22;41972;48.774;9.282;2022-10-17T12:07:32;24.40;99.90
2158;DHT22;41972;48.774;9.282;2022-10-17T12:10:31;24.20;99.90
2158;DHT22;41972;48.774;9.282;2022-10-17T12:15:52;24.50;99.90
2158;DHT22;41972;48.774;9.282;2022-10-17T12:18:18;24.50;99.90
2158;DHT22;41972;48.774;9.282;2022-10-17T12:20:55;24.70;99.90
2158;DHT22;41972;48.774;9.282;2022-10-17T12:23:27;24.70;99.90
2158;DHT22;41972;48.774;9.282;2022-10-17T12:26:01;24.70;99.90
2158;DHT22;41972;48.774;9.282;2022-10-17T12:34:17;24.70;99.90
2158;DHT22;41972;48.774;9.282;2022-10-17T12:38:44;24.50;99.90
2158;DHT22;41972;48.774;9.282;2022-10-17T12:41:11;24.70;99.90
2158;DHT22;41972;48.774;9.282;2022-10-17T12:43:42;24.70;99.90
2158;DHT22;41972;48.774;9.282;2022-10-17T12:46:09;24.70;99.90
2158;DHT22;41972;48.774;9.282;2022-10-17T12:51:15;24.80;99.90
2158;DHT22;41972;48.774;9.282;2022-10-17T12:56:21;24.40;99.90
2158;DHT22;41972;48.774;9.282;2022-10-17T12:58:54;24.50;99.90
2158;DHT22;41972;48.774;9.282;2022-10-17T13:01:32;24.60;99.90
2158;DHT22;41972;48.774;9.282;2022-10-17T13:03:59;24.70;99.90
2158;DHT22;41972;48.774;9.282;2022-10-17T13:06:33;24.60;99.90
2158;DHT22;41972;48.774;9.282;2022-10-17T13:09:26;24.50;99.90
2158;DHT22;41972;48.774;9.282;2022-10-17T13:11:53;24.50;99.90
2158;DHT22;41972;48.774;9.282;2022-10-17T13:14:20;24.50;99.90
2158;DHT22;41972;48.774;9.282;2022-10-17T13:19:23;24.60;99.90
2158;DHT22;41972;48.774;9.282;2022-10-17T13:21:54;24.50;99.90
2158;DHT22;41972;48.774;9.282;2022-10-17T13:26:55;24.50;99.90
2158;DHT22;41972;48.774;9.282;2022-10-17T13:29:21;24.50;99.90
2158;DHT22;41972;48.774;9.282;2022-10-17T13:32:03;24.50;99.90
2158;DHT22;41972;48.774;9.282;2022-10-17T13:34:31;24.50;99.90
2158;DHT22;41972;48.774;9.282;2022-10-17T13:36:59;24.50;99.90
2158;DHT22;41972;48.774;9.282;2022-10-17T13:39:29;24.50;99.90
2158;DHT22;41972;48.774;9.282;2022-10-17T13:41:57;24.10;99.90
2158;DHT22;41972;48.774;9.282;2022-10-17T13:44:26;23.60;99.90
2158;DHT22;41972;48.774;9.282;2022-10-17T13:46:52;23.30;99.90
2158;DHT22;41972;48.774;9.282;2022-10-17T13:49:22;23.10;99.90
2158;DHT22;41972;48.774;9.282;2022-10-17T13:51:51;23.00;99.90
2158;DHT22;41972;48.774;9.282;2022-10-17T13:54:38;23.10;99.90
2158;DHT22;41972;48.774;9.282;2022-10-17T14:00:09;23.20;99.90
2158;DHT22;41972;48.774;9.282;2022-10-17T14:02:35;23.10;99.90
2158;DHT22;41972;48.774;9.282;2022-10-17T14:10:20;23.00;99.90
2158;DHT22;41972;48.774;9.282;2022-10-17T14:12:46;22.90;99.90
2158;DHT22;41972;48.774;9.282;2022-10-17T14:15:13;22.90;99.90
2158;DHT22;41972;48.774;9.282;2022-10-17T14:17:41;22.80;99.90
2158;DHT22;41972;48.774;9.282;2022-10-17T14:20:15;22.70;99.90
2158;DHT22;41972;48.774;9.282;2022-10-17T14:22:41;22.80;99.90
2158;DHT22;41972;48.774;9.282;2022-10-17T14:25:26;22.90;99.90
2158;DHT22;41972;48.774;9.282;2022-10-17T14:30:39;22.80;99.90
2158;DHT22;41972;48.774;9.282;2022-10-17T14:33:12;22.70;99.90
2158;DHT22;41972;48.774;9.282;2022-10-17T14:35:39;22.70;99.90
2158;DHT22;41972;48.774;9.282;2022-10-17T14:38:06;22.80;99.90
2158;DHT22;41972;48.774;9.282;2022-10-17T14:40:33;22.80;99.90
2158;DHT22;41972;48.774;9.282;2022-10-17T14:43:04;23.00;99.90
2158;DHT22;41972;48.774;9.282;2022-10-17T14:45:35;23.00;99.90
2158;DHT22;41972;48.774;9.282;2022-10-17T14:48:13;22.90;99.90
2158;DHT22;41972;48.774;9.282;2022-10-17T14:50:39;22.90;99.90
2158;DHT22;41972;48.774;9.282;2022-10-17T14:53:19;22.70;99.90
2158;DHT22;41972;48.774;9.282;2022-10-17T14:56:23;22.70;99.90
2158;DHT22;41972;48.774;9.282;2022-10-17T14:58:49;22.70;99.90
2158;DHT22;41972;48.774;9.282;2022-10-17T15:01:16;22.60;99.90
2158;DHT22;41972;48.774;9.282;2022-10-17T15:03:42;22.60;99.90
2158;DHT22;41972;48.774;9.282;2022-10-17T15:06:27;22.70;99.90
2158;DHT22;41972;48.774;9.282;2022-10-17T15:08:53;22.70;99.90
2158;DHT22;41972;48.774;9.282;2022-10-17T15:11:18;22.60;99.90
2158;DHT22;41972;48.774;9.282;2022-10-17T15:13:44;22.50;99.90
2158;DHT22;41972;48.774;9.282;2022-10-17T15:16:22;22.50;99.90
2158;DHT22;41972;48.774;9.282;2022-10-17T15:18:48;22.50;99.90
2158;DHT22;41972;48.774;9.282;2022-10-17T15:21:15;22.30;99.90
2158;DHT22;41972;48.774;9.282;2022-10-17T15:23:41;22.30;99.90
2158;DHT22;41972;48.774;9.282;2022-10-17T15:26:21;22.20;99.90
2158;DHT22;41972;48.774;9.282;2022-10-17T15:28:47;22.20;99.90
2158;DHT22;41972;48.774;9.282;2022-10-17T15:31:19;22.30;99.90
2158;DHT22;41972;48.774;9.282;2022-10-17T15:33:45;22.30;99.90
2158;DHT22;41972;48.774;9.282;2022-10-17T15:36:28;22.40;99.90
2158;DHT22;41972;48.774;9.282;2022-10-17T15:38:59;22.40;99.90
2158;DHT22;41972;48.774;9.282;2022-10-17T15:41:28;22.40;99.90
2158;DHT22;41972;48.774;9.282;2022-10-17T15:43:53;22.30;99.90
2158;DHT22;41972;48.774;9.282;2022-10-17T15:46:27;22.10;99.90
2158;DHT22;41972;48.774;9.282;2022-10-17T15:48:54;22.10;99.90
2158;DHT22;41972;48.774;9.282;2022-10-17T15:51:21;22.00;99.90
2158;DHT22;41972;48.774;9.282;2022-10-17T15:53:47;21.80;99.90
2158;DHT22;41972;48.774;9.282;2022-10-17T15:56:24;21.60;99.90
2158;DHT22;41972;48.774;9.282;2022-10-17T15:58:50;21.50;99.90
2158;DHT22;41972;48.774;9.282;2022-10-17T16:01:34;21.40;99.90
2158;DHT22;41972;48.774;9.282;2022-10-17T16:04:00;21.30;99.90
2158;DHT22;41972;48.774;9.282;2022-10-17T16:06:26;21.20;99.90
2158;DHT22;41972;48.774;9.282;2022-10-17T16:08:51;21.10;99.90
2158;DHT22;41972;48.774;9.282;2022-10-17T16:11:33;20.60;99.90
2158;DHT22;41972;48.774;9.282;2022-10-17T16:14:02;20.20;99.90
2158;DHT22;41972;48.774;9.282;2022-10-17T16:16:28;19.90;99.90
2158;DHT22;41972;48.774;9.282;2022-10-17T16:18:54;19.50;99.90
2158;DHT22;41972;48.774;9.282;2022-10-17T16:21:24;19.40;99.90
2158;DHT22;41972;48.774;9.282;2022-10-17T16:23:50;19.30;99.90
2158;DHT22;41972;48.774;9.282;2022-10-17T16:26:16;19.10;99.90
2158;DHT22;41972;48.774;9.282;2022-10-17T16:28:44;19.10;99.90
2158;DHT22;41972;48.774;9.282;2022-10-17T16:31:25;18.90;99.90
2158;DHT22;41972;48.774;9.282;2022-10-17T16:33:54;18.70;99.90
2158;DHT22;41972;48.774;9.282;2022-10-17T16:36:20;18.40;99.90
2158;DHT22;41972;48.774;9.282;2022-10-17T16:38:46;18.30;99.90
2158;DHT22;41972;48.774;9.282;2022-10-17T16:41:33;18.20;99.90
2158;DHT22;41972;48.774;9.282;2022-10-17T16:44:01;18.20;99.90
2158;DHT22;41972;48.774;9.282;2022-10-17T16:46:28;17.90;99.90
2158;DHT22;41972;48.774;9.282;2022-10-17T16:48:54;17.50;99.90
2158;DHT22;41972;48.774;9.282;2022-10-17T16:51:20;17.50;99.90
2158;DHT22;41972;48.774;9.282;2022-10-17T16:53:48;17.40;99.90
2158;DHT22;41972;48.774;9.282;2022-10-17T16:56:17;17.40;99.90
2158;DHT22;41972;48.774;9.282;2022-10-17T16:58:43;17.50;99.90
2158;DHT22;41972;48.774;9.282;2022-10-17T17:01:14;17.50;99.90
2158;DHT22;41972;48.774;9.282;2022-10-17T17:03:42;17.20;99.90
2158;DHT22;41972;48.774;9.282;2022-10-17T17:06:11;17.30;99.90
2158;DHT22;41972;48.774;9.282;2022-10-17T17:08:37;17.20;99.90
2158;DHT22;41972;48.774;9.282;2022-10-17T17:11:07;17.10;99.90
2158;DHT22;41972;48.774;9.282;2022-10-17T17:13:33;17.20;99.90
2158;DHT22;41972;48.774;9.282;2022-10-17T17:16:07;17.00;99.90
2158;DHT22;41972;48.774;9.282;2022-10-17T17:18:34;16.90;99.90
2158;DHT22;41972;48.774;9.282;2022-10-17T17:21:01;16.80;99.90
2158;DHT22;41972;48.774;9.282;2022-10-17T17:23:28;16.80;99.90
2158;DHT22;41972;48.774;9.282;2022-10-17T17:26:04;16.80;99.90
2158;DHT22;41972;48.774;9.282;2022-10-17T17:28:32;16.70;99.90
2158;DHT22;41972;48.774;9.282;2022-10-17T17:30:58;17.00;99.90
2158;DHT22;41972;48.774;9.282;2022-10-17T17:33:24;17.10;99.90
2158;DHT22;41972;48.774;9.282;2022-10-17T17:35:54;17.00;99.90
2158;DHT22;41972;48.774;9.282;2022-10-17T17:38:20;16.80;99.90
2158;DHT22;41972;48.774;9.282;2022-10-17T17:40:46;16.70;99.90
2158;DHT22;41972;48.774;9.282;2022-10-17T17:43:12;16.50;99.90
2158;DHT22;41972;48.774;9.282;2022-10-17T17:45:37;16.50;99.90
2158;DHT22;41972;48.774;9.282;2022-10-17T17:48:03;16.70;99.90
2158;DHT22;41972;48.774;9.282;2022-10-17T17:50:28;16.80;99.90
2158;DHT22;41972;48.774;9.282;2022-10-17T17:52:54;16.90;99.90